Time;durP1;ratioP1;P1;durP2;ratioP2;P2;SDS_P1;SDS_P2;PMS_P1;PMS_P2;Temp;Humidity;BMP_temperature;BMP_pressure;BME280_temperature;BME280_humidity;BME280_pressure;Samples;Min_cycle;Max_cycle;Signal;HPM_P1;HPM_P2
2023/02/02 00:01:23;;;;;;;21.52;5.93;;;4.20;99.90;;;;;;4968937;28;20414;-82
2023/02/02 00:03:51;;;;;;;20.13;6.40;;;4.20;99.90;;;;;;4971049;28;20441;-82
2023/02/02 00:06:19;;;;;;;20.67;5.67;;;4.00;99.90;;;;;;4966599;28;20789;-83
2023/02/02 00:08:45;;;;;;;26.23;6.72;;;4.20;99.90;;;;;;4968421;28;20740;-83
2023/02/02 00:11:11;;;;;;;23.63;5.90;;;4.20;99.90;;;;;;4970485;28;20858;-82
2023/02/02 00:13:37;;;;;;;24.13;6.13;;;4.30;99.90;;;;;;4969505;28;20390;-82
2023/02/02 00:16:25;;;;;;;21.88;6.25;;;4.40;99.90;;;;;;4969363;28;20417;-82
2023/02/02 00:18:52;;;;;;;28.73;6.22;;;4.40;99.90;;;;;;4969515;28;20376;-83
2023/02/02 00:21:17;;;;;;;22.40;6.13;;;4.50;99.90;;;;;;4968060;28;20406;-83
2023/02/02 00:23:43;;;;;;;25.00;7.00;;;4.50;99.90;;;;;;4968056;28;20469;-82
2023/02/02 00:26:10;;;;;;;21.25;6.15;;;4.50;99.90;;;;;;4965335;28;20438;-82
2023/02/02 00:28:35;;;;;;;23.13;5.80;;;4.40;99.90;;;;;;4953076;28;20422;-82
2023/02/02 00:31:01;;;;;;;23.70;6.18;;;4.50;99.90;;;;;;4966531;28;20399;-82
2023/02/02 00:33:28;;;;;;;21.45;6.65;;;4.60;99.90;;;;;;4966070;28;20438;-82
2023/02/02 00:35:54;;;;;;;23.80;6.22;;;4.60;99.90;;;;;;4967302;28;20425;-82
2023/02/02 00:38:19;;;;;;;21.83;6.50;;;4.60;99.90;;;;;;4965596;28;20447;-81
2023/02/02 00:40:45;;;;;;;22.42;6.15;;;4.80;99.90;;;;;;4968361;28;20422;-83
2023/02/02 00:43:11;;;;;;;20.40;6.30;;;4.60;99.90;;;;;;4968019;28;20905;-82
2023/02/02 00:45:37;;;;;;;20.03;5.50;;;4.70;99.90;;;;;;4969765;28;20901;-82
2023/02/02 00:48:03;;;;;;;26.08;5.65;;;4.80;99.90;;;;;;4968751;28;20425;-81
2023/02/02 00:50:29;;;;;;;21.17;5.77;;;4.80;99.90;;;;;;4968392;28;20406;-82
2023/02/02 00:52:54;;;;;;;20.63;6.00;;;4.80;99.90;;;;;;4966489;28;20939;-82
2023/02/02 00:55:20;;;;;;;23.70;6.37;;;4.70;99.90;;;;;;4966916;28;20504;-84
2023/02/02 00:57:47;;;;;;;28.33;6.57;;;4.70;99.90;;;;;;4963125;28;20413;-82
2023/02/02 01:00:19;;;;;;;26.77;6.10;;;4.70;99.90;;;;;;4967978;28;20441;-82
2023/02/02 01:02:45;;;;;;;24.33;6.53;;;4.60;99.90;;;;;;4967293;28;20406;-82
2023/02/02 01:05:11;;;;;;;27.27;6.30;;;4.70;99.90;;;;;;4968920;28;20425;-82
2023/02/02 01:07:38;;;;;;;25.83;6.10;;;4.70;99.90;;;;;;4968924;28;20414;-83
2023/02/02 01:10:07;;;;;;;27.77;7.05;;;4.70;99.90;;;;;;4967444;28;20890;-82
2023/02/02 01:12:33;;;;;;;25.40;6.82;;;4.70;99.90;;;;;;4968916;28;20486;-82
2023/02/02 01:15:00;;;;;;;25.75;6.93;;;4.70;99.90;;;;;;4965443;28;20409;-81
2023/02/02 01:17:26;;;;;;;29.05;6.60;;;4.80;99.90;;;;;;4954951;28;20429;-82
2023/02/02 01:19:51;;;;;;;21.02;5.90;;;4.70;99.90;;;;;;4966348;28;20736;-82
2023/02/02 01:22:17;;;;;;;25.23;6.50;;;4.70;99.90;;;;;;4967312;28;20877;-82
2023/02/02 01:24:43;;;;;;;21.43;5.87;;;4.80;99.90;;;;;;4969042;28;20809;-83
2023/02/02 01:27:08;;;;;;;25.77;5.90;;;4.90;99.90;;;;;;4968711;28;20843;-81
2023/02/02 01:29:34;;;;;;;22.67;5.72;;;4.80;99.90;;;;;;4968618;28;20418;-82
2023/02/02 01:31:59;;;;;;;24.98;5.80;;;4.80;99.90;;;;;;4967674;28;20407;-81
2023/02/02 01:34:25;;;;;;;23.23;6.07;;;4.80;99.90;;;;;;4966169;28;20488;-82
2023/02/02 01:36:51;;;;;;;24.07;6.87;;;4.80;99.90;;;;;;4971642;28;20947;-82
2023/02/02 01:39:17;;;;;;;20.97;5.80;;;4.90;99.90;;;;;;4971772;28;20414;-82
2023/02/02 01:41:42;;;;;;;21.20;6.60;;;4.90;99.90;;;;;;4972029;28;20402;-82
2023/02/02 01:44:45;;;;;;;24.85;6.68;;;5.10;99.90;;;;;;4973345;28;20386;-81
2023/02/02 01:47:12;;;;;;;27.80;6.63;;;4.80;99.90;;;;;;4972845;28;20857;-81
2023/02/02 01:49:39;;;;;;;22.13;6.45;;;4.90;99.90;;;;;;4973463;28;20394;-81
2023/02/02 01:52:05;;;;;;;26.63;6.00;;;5.00;99.90;;;;;;4973977;28;20417;-82
2023/02/02 01:54:39;;;;;;;24.67;6.18;;;4.90;99.90;;;;;;4972343;28;20397;-81
2023/02/02 01:57:15;;;;;;;23.08;6.40;;;4.90;99.90;;;;;;5243108;23;20423;-80
2023/02/02 01:59:43;;;;;;;23.50;6.35;;;4.90;99.90;;;;;;5008498;28;20876;-81
2023/02/02 02:02:09;;;;;;;20.60;6.65;;;4.90;99.90;;;;;;5008285;28;20407;-80
2023/02/02 02:04:35;;;;;;;21.98;6.88;;;5.00;99.90;;;;;;5011312;28;20410;-81
2023/02/02 02:07:03;;;;;;;24.83;6.15;;;5.00;99.90;;;;;;5009746;28;20399;-80
2023/02/02 02:09:29;;;;;;;25.38;5.93;;;5.00;99.90;;;;;;5010162;28;20411;-81
2023/02/02 02:11:55;;;;;;;22.30;5.97;;;5.10;99.90;;;;;;5011210;28;20402;-82
2023/02/02 02:17:13;;;;;;;23.30;5.55;;;5.20;99.90;;;;;;5011049;28;20465;-80
2023/02/02 02:26:34;;;;;;;24.45;5.72;;;5.20;99.90;;;;;;5009703;28;20480;-82
2023/02/02 02:29:36;;;;;;;20.42;5.68;;;5.20;99.90;;;;;;5007790;28;20407;-82
2023/02/02 02:32:43;;;;;;;20.75;5.55;;;5.20;99.90;;;;;;5009832;28;20471;-81
2023/02/02 02:35:33;;;;;;;18.67;5.78;;;5.20;99.90;;;;;;5009068;28;20822;-82
2023/02/02 02:38:18;;;;;;;20.17;5.55;;;5.20;99.90;;;;;;5009979;28;20413;-81
2023/02/02 02:40:52;;;;;;;23.67;5.88;;;5.20;99.90;;;;;;5010112;28;21081;-80
2023/02/02 02:43:32;;;;;;;19.90;5.70;;;5.20;99.90;;;;;;5012086;28;20430;-80
2023/02/02 02:45:58;;;;;;;21.30;5.18;;;5.20;99.90;;;;;;5010935;28;20890;-80
2023/02/02 02:48:24;;;;;;;21.83;4.68;;;5.20;99.90;;;;;;5009504;28;20449;-80
2023/02/02 02:50:49;;;;;;;17.37;5.40;;;5.10;99.90;;;;;;5011080;28;20443;-81
2023/02/02 02:53:20;;;;;;;17.90;4.85;;;5.00;99.90;;;;;;5012254;28;20406;-80
2023/02/02 02:55:53;;;;;;;19.40;4.93;;;5.10;99.90;;;;;;5010924;28;20413;-80
2023/02/02 02:58:39;;;;;;;15.95;4.85;;;5.10;99.90;;;;;;5010433;28;22417;-81
2023/02/02 03:01:37;;;;;;;21.92;5.80;;;5.10;99.90;;;;;;5010559;28;20495;-81
2023/02/02 03:04:26;;;;;;;14.40;3.97;;;5.10;99.90;;;;;;5008825;28;20435;-81
2023/02/02 03:07:04;;;;;;;14.68;3.88;;;5.10;99.90;;;;;;5011352;28;21276;-81
2023/02/02 03:09:35;;;;;;;16.42;3.90;;;5.00;99.90;;;;;;5009915;28;20437;-82
2023/02/02 03:12:01;;;;;;;12.80;3.90;;;4.90;99.90;;;;;;5010190;28;20402;-82
2023/02/02 03:14:27;;;;;;;13.82;4.35;;;5.00;99.90;;;;;;5010580;28;20403;-81
2023/02/02 03:16:53;;;;;;;15.75;4.55;;;4.80;99.90;;;;;;5010052;28;20493;-82
2023/02/02 03:19:19;;;;;;;14.75;3.97;;;4.80;99.90;;;;;;5009710;28;20407;-80
2023/02/02 03:21:45;;;;;;;19.63;4.72;;;4.80;99.90;;;;;;5011329;28;20515;-81
2023/02/02 03:24:10;;;;;;;13.50;4.35;;;4.80;99.90;;;;;;5011507;28;20494;-81
2023/02/02 03:26:36;;;;;;;17.25;4.68;;;4.80;99.90;;;;;;5008671;28;20433;-81
2023/02/02 03:29:02;;;;;;;15.40;4.50;;;4.80;99.90;;;;;;5008604;28;20837;-82
2023/02/02 03:31:28;;;;;;;15.57;4.30;;;4.90;99.90;;;;;;5009933;28;20438;-82
2023/02/02 03:33:55;;;;;;;16.67;4.55;;;4.90;99.90;;;;;;5010655;28;20410;-81
2023/02/02 03:36:21;;;;;;;16.77;4.75;;;5.00;99.90;;;;;;5010776;28;20441;-82
2023/02/02 03:38:47;;;;;;;13.02;3.95;;;5.00;99.90;;;;;;5008553;28;20611;-81
2023/02/02 03:41:13;;;;;;;13.17;4.20;;;4.90;99.90;;;;;;5009156;28;20575;-82
2023/02/02 03:43:38;;;;;;;14.77;4.13;;;4.90;99.90;;;;;;5007471;28;20395;-82
2023/02/02 03:46:05;;;;;;;12.70;3.42;;;4.90;99.90;;;;;;5007860;28;20425;-82
2023/02/02 03:48:34;;;;;;;11.02;2.80;;;4.90;99.90;;;;;;5007081;28;20398;-81
2023/02/02 03:50:59;;;;;;;7.90;2.60;;;4.90;99.90;;;;;;5009245;28;20411;-82
2023/02/02 03:53:25;;;;;;;13.40;3.33;;;4.70;99.90;;;;;;5009223;28;20399;-82
2023/02/02 03:55:51;;;;;;;11.63;2.80;;;4.50;99.90;;;;;;5007483;28;20419;-81
2023/02/02 03:58:16;;;;;;;13.27;3.00;;;4.70;99.90;;;;;;5008947;28;20445;-83
2023/02/02 04:00:42;;;;;;;14.02;3.83;;;4.90;99.90;;;;;;4999266;28;20442;-82
2023/02/02 04:03:08;;;;;;;10.53;3.70;;;5.20;99.90;;;;;;5006137;28;20906;-81
2023/02/02 04:05:34;;;;;;;13.10;3.73;;;5.00;99.90;;;;;;4994148;28;20410;-81
2023/02/02 04:07:59;;;;;;;14.63;3.67;;;4.90;99.90;;;;;;5005903;28;20450;-82
2023/02/02 04:10:25;;;;;;;16.35;3.80;;;5.00;99.90;;;;;;5003203;28;20404;-81
2023/02/02 04:12:51;;;;;;;12.90;4.20;;;5.00;99.90;;;;;;5009552;28;20486;-81
2023/02/02 04:15:17;;;;;;;14.38;3.85;;;5.00;99.90;;;;;;5011161;28;20537;-81
2023/02/02 04:17:42;;;;;;;13.33;4.13;;;5.00;99.90;;;;;;5008107;28;20851;-82
2023/02/02 04:20:11;;;;;;;13.57;3.93;;;5.00;99.90;;;;;;5009251;28;20966;-81
2023/02/02 04:22:36;;;;;;;13.48;3.72;;;5.00;99.90;;;;;;5005899;28;20488;-82
2023/02/02 04:25:03;;;;;;;12.90;3.70;;;5.00;99.90;;;;;;5008877;28;20936;-82
2023/02/02 04:27:31;;;;;;;13.68;3.60;;;5.00;99.90;;;;;;5006718;28;20403;-81
2023/02/02 04:29:57;;;;;;;15.00;3.87;;;5.00;99.90;;;;;;5007797;28;21037;-81
2023/02/02 04:32:22;;;;;;;11.57;3.53;;;5.00;99.90;;;;;;5007290;28;20502;-81
2023/02/02 04:34:48;;;;;;;13.05;3.83;;;5.00;99.90;;;;;;5009430;28;20422;-80
2023/02/02 04:37:14;;;;;;;15.25;3.33;;;5.00;99.90;;;;;;5008952;28;20693;-80
2023/02/02 04:39:39;;;;;;;12.50;3.63;;;5.10;99.90;;;;;;5007379;28;20410;-82
2023/02/02 04:42:05;;;;;;;11.37;3.20;;;5.00;99.90;;;;;;5007792;28;20391;-80
2023/02/02 04:44:31;;;;;;;11.50;3.38;;;5.10;99.90;;;;;;5007556;28;20418;-82
2023/02/02 04:46:56;;;;;;;11.95;3.40;;;5.10;99.90;;;;;;5008182;28;20406;-82
2023/02/02 04:49:22;;;;;;;13.63;3.60;;;4.90;99.90;;;;;;5008339;28;20446;-81
2023/02/02 04:51:49;;;;;;;13.03;3.60;;;5.00;99.90;;;;;;5009344;28;20425;-81
2023/02/02 04:54:14;;;;;;;13.48;3.70;;;5.20;99.90;;;;;;5008578;28;20430;-81
2023/02/02 04:56:40;;;;;;;15.53;4.13;;;5.10;99.90;;;;;;5007760;28;21023;-82
2023/02/02 04:59:06;;;;;;;11.73;3.63;;;5.10;99.90;;;;;;5007445;28;20932;-81
2023/02/02 05:01:31;;;;;;;14.33;3.80;;;5.10;99.90;;;;;;5008893;28;20399;-81
2023/02/02 05:03:57;;;;;;;15.13;3.80;;;5.00;99.90;;;;;;5006559;28;21300;-80
2023/02/02 05:06:23;;;;;;;15.30;3.85;;;5.20;99.90;;;;;;5008244;28;20445;-81
2023/02/02 05:08:49;;;;;;;11.70;3.72;;;5.00;99.90;;;;;;5007403;28;20438;-81
2023/02/02 05:11:17;;;;;;;14.52;3.80;;;5.00;99.90;;;;;;5004729;28;20403;-80
2023/02/02 05:13:51;;;;;;;13.93;3.90;;;4.90;99.90;;;;;;5005727;28;20571;-81
2023/02/02 05:16:17;;;;;;;15.23;3.85;;;5.00;99.90;;;;;;4996824;28;20406;-82
2023/02/02 05:18:51;;;;;;;13.25;3.60;;;4.80;99.90;;;;;;5007155;28;20459;-82
2023/02/02 05:21:18;;;;;;;12.13;3.50;;;4.90;99.90;;;;;;5007808;28;20399;-82
2023/02/02 05:23:43;;;;;;;17.38;4.40;;;4.90;99.90;;;;;;5007690;28;21113;-82
2023/02/02 05:26:19;;;;;;;14.67;4.20;;;4.90;99.90;;;;;;5009007;28;20915;-81
2023/02/02 05:28:45;;;;;;;14.35;4.28;;;4.80;99.90;;;;;;5009174;28;20407;-81
2023/02/02 05:31:11;;;;;;;13.45;3.42;;;4.90;99.90;;;;;;5008904;28;20409;-82
2023/02/02 05:33:37;;;;;;;12.83;4.23;;;5.00;99.90;;;;;;5008300;28;20470;-82
2023/02/02 05:36:03;;;;;;;13.30;3.60;;;4.80;99.90;;;;;;5008952;28;20498;-82
2023/02/02 05:38:29;;;;;;;15.02;3.67;;;4.90;99.90;;;;;;5007837;28;20489;-82
2023/02/02 05:40:55;;;;;;;14.48;3.85;;;4.90;99.90;;;;;;5005885;28;20944;-81
2023/02/02 05:43:24;;;;;;;14.07;3.30;;;4.90;99.90;;;;;;5009908;28;20383;-81
2023/02/02 05:45:49;;;;;;;14.20;3.75;;;4.90;99.90;;;;;;5009898;28;20394;-81
2023/02/02 05:48:15;;;;;;;15.20;4.10;;;4.90;99.90;;;;;;5009215;28;20377;-81
2023/02/02 05:50:48;;;;;;;11.50;4.05;;;4.90;99.90;;;;;;5010009;28;20789;-81
2023/02/02 05:53:15;;;;;;;11.30;3.40;;;4.90;99.90;;;;;;5009155;28;20383;-81
2023/02/02 05:55:41;;;;;;;12.63;3.30;;;5.00;99.90;;;;;;5009960;28;20797;-81
2023/02/02 05:58:06;;;;;;;14.25;3.75;;;5.00;99.90;;;;;;5009026;28;20391;-81
2023/02/02 06:00:32;;;;;;;10.93;3.40;;;5.00;99.90;;;;;;5007443;28;20435;-81
2023/02/02 06:02:58;;;;;;;14.87;3.90;;;5.00;99.90;;;;;;5007817;28;20493;-81
2023/02/02 06:05:23;;;;;;;11.93;3.28;;;4.90;99.90;;;;;;5008178;28;20434;-81
2023/02/02 06:07:49;;;;;;;9.88;2.95;;;4.90;99.90;;;;;;5001485;28;20402;-81
2023/02/02 06:10:15;;;;;;;11.20;3.27;;;4.90;99.90;;;;;;5005144;28;20913;-81
2023/02/02 06:12:40;;;;;;;11.37;3.03;;;4.80;99.90;;;;;;5008218;28;20864;-82
2023/02/02 06:15:07;;;;;;;16.13;3.53;;;4.80;99.90;;;;;;5005652;28;20745;-81
2023/02/02 06:17:32;;;;;;;13.03;3.50;;;4.70;99.90;;;;;;5005863;28;20476;-81
2023/02/02 06:19:58;;;;;;;16.83;3.20;;;4.60;99.90;;;;;;5009693;28;20376;-81
2023/02/02 06:22:24;;;;;;;11.67;3.27;;;4.60;99.90;;;;;;5011375;28;20484;-81
2023/02/02 06:24:52;;;;;;;12.65;3.42;;;4.50;99.90;;;;;;5003815;28;20426;-81
2023/02/02 06:27:19;;;;;;;10.40;3.17;;;4.40;99.90;;;;;;4999894;28;20766;-82
2023/02/02 06:29:44;;;;;;;13.38;3.42;;;4.30;99.90;;;;;;4988081;28;20381;-82
2023/02/02 06:32:10;;;;;;;11.73;3.35;;;4.40;99.90;;;;;;4994646;28;20379;-82
2023/02/02 06:34:35;;;;;;;13.37;4.07;;;4.20;99.90;;;;;;5011602;28;20408;-82
2023/02/02 06:37:01;;;;;;;17.30;3.80;;;4.20;99.90;;;;;;4997688;28;20746;-81
2023/02/02 06:39:27;;;;;;;14.52;4.10;;;4.10;99.90;;;;;;4991287;28;20373;-82
2023/02/02 06:41:52;;;;;;;14.02;3.67;;;4.10;99.90;;;;;;4992132;28;20463;-81
2023/02/02 06:44:19;;;;;;;15.43;3.63;;;4.20;99.90;;;;;;4990440;28;20858;-81
2023/02/02 06:46:45;;;;;;;17.63;4.93;;;4.20;99.90;;;;;;4991432;28;20391;-81
2023/02/02 06:49:11;;;;;;;14.68;3.40;;;4.20;99.90;;;;;;4991509;28;20465;-82
2023/02/02 06:51:37;;;;;;;13.80;3.95;;;4.40;99.90;;;;;;4991533;28;20385;-80
2023/02/02 06:54:02;;;;;;;11.00;3.10;;;4.10;99.90;;;;;;4989797;28;20697;-81
2023/02/02 06:56:28;;;;;;;12.23;4.20;;;4.10;99.90;;;;;;4986451;28;20400;-81
2023/02/02 06:58:54;;;;;;;15.48;3.85;;;4.00;99.90;;;;;;4990874;28;20385;-81
2023/02/02 07:01:20;;;;;;;16.43;4.40;;;3.90;99.90;;;;;;4991880;28;21028;-81
2023/02/02 07:03:50;;;;;;;19.55;4.35;;;4.00;99.90;;;;;;4991542;28;20561;-82
2023/02/02 07:06:21;;;;;;;15.05;3.60;;;4.10;99.90;;;;;;4991100;28;20385;-82
2023/02/02 07:08:49;;;;;;;16.67;4.67;;;4.30;99.90;;;;;;4989553;28;20396;-81
2023/02/02 07:11:15;;;;;;;17.73;4.43;;;4.40;99.90;;;;;;4989486;28;20422;-81
2023/02/02 07:13:41;;;;;;;15.95;4.25;;;4.20;99.90;;;;;;4991388;28;20458;-81
2023/02/02 07:16:11;;;;;;;15.13;3.80;;;4.10;99.90;;;;;;4991091;28;20784;-79
2023/02/02 07:18:38;;;;;;;16.88;4.65;;;4.30;99.90;;;;;;4990901;28;20885;-77
2023/02/02 07:21:05;;;;;;;16.73;4.63;;;4.50;99.90;;;;;;4989467;28;20689;-82
2023/02/02 07:23:32;;;;;;;15.48;4.10;;;4.50;99.90;;;;;;4990727;28;20378;-81
2023/02/02 07:26:05;;;;;;;16.95;4.35;;;4.50;99.90;;;;;;4990307;28;20380;-83
2023/02/02 07:28:31;;;;;;;15.07;4.22;;;4.60;99.90;;;;;;4990167;28;20407;-81
2023/02/02 07:30:57;;;;;;;13.88;4.55;;;4.70;99.90;;;;;;4990542;28;20447;-81
2023/02/02 07:33:23;;;;;;;21.00;5.32;;;4.70;99.90;;;;;;5006614;28;20407;-80
2023/02/02 07:35:49;;;;;;;17.45;4.95;;;4.70;99.90;;;;;;5010198;28;20379;-82
2023/02/02 07:38:14;;;;;;;20.70;4.70;;;4.80;99.90;;;;;;5008338;28;20777;-81
2023/02/02 07:40:40;;;;;;;18.20;4.47;;;4.80;99.90;;;;;;5010678;28;20477;-81
2023/02/02 07:43:06;;;;;;;21.58;4.95;;;4.50;99.90;;;;;;5010217;28;20845;-81
2023/02/02 07:45:31;;;;;;;16.52;4.65;;;4.50;99.90;;;;;;5008528;28;20445;-82
2023/02/02 07:48:01;;;;;;;18.13;4.35;;;4.60;99.90;;;;;;5009527;28;20388;-81
2023/02/02 07:50:29;;;;;;;20.23;5.18;;;4.70;99.90;;;;;;5009647;28;20386;-81
2023/02/02 07:52:55;;;;;;;14.25;4.22;;;4.80;99.90;;;;;;5007853;28;20469;-82
2023/02/02 07:55:20;;;;;;;13.60;3.90;;;4.70;99.90;;;;;;5010431;28;20551;-82
2023/02/02 07:57:46;;;;;;;15.60;4.33;;;4.80;99.90;;;;;;5008528;28;20890;-81
2023/02/02 08:00:12;;;;;;;16.60;4.30;;;4.80;99.90;;;;;;5008814;28;20426;-81
2023/02/02 08:02:38;;;;;;;16.92;4.28;;;4.90;99.90;;;;;;5010292;28;21026;-77
2023/02/02 08:05:06;;;;;;;19.88;3.95;;;4.90;99.90;;;;;;5009902;28;20453;-82
2023/02/02 08:07:33;;;;;;;15.68;4.00;;;5.00;99.90;;;;;;4994603;28;20401;-82
2023/02/02 08:09:59;;;;;;;13.77;3.67;;;5.10;99.90;;;;;;5007718;28;20380;-82
2023/02/02 08:12:25;;;;;;;17.50;3.80;;;5.10;99.90;;;;;;5004180;28;20451;-80
2023/02/02 08:14:51;;;;;;;15.30;3.70;;;5.10;99.90;;;;;;5009136;28;20749;-81
2023/02/02 08:17:17;;;;;;;15.57;3.37;;;5.10;99.90;;;;;;5009044;28;20522;-81
2023/02/02 08:19:43;;;;;;;12.73;4.07;;;4.90;99.90;;;;;;5004146;28;20391;-81
2023/02/02 08:22:08;;;;;;;13.43;3.60;;;4.80;99.90;;;;;;5001318;28;20399;-80
2023/02/02 08:24:39;;;;;;;12.60;3.57;;;4.80;99.90;;;;;;4989179;28;20396;-80
2023/02/02 08:27:06;;;;;;;16.48;4.65;;;4.90;99.90;;;;;;4988357;28;20432;-81
2023/02/02 08:29:31;;;;;;;10.77;3.60;;;5.00;99.90;;;;;;4988124;28;20380;-81
2023/02/02 08:31:58;;;;;;;13.60;3.13;;;5.20;99.90;;;;;;4995051;28;20396;-81
2023/02/02 08:34:24;;;;;;;15.00;3.85;;;5.30;99.90;;;;;;4992737;28;20385;-81
2023/02/02 08:36:50;;;;;;;11.38;3.28;;;5.60;99.90;;;;;;4997879;28;20411;-81
2023/02/02 08:39:16;;;;;;;11.55;3.03;;;5.90;99.90;;;;;;5008147;28;20375;-80
2023/02/02 08:41:42;;;;;;;16.00;3.57;;;6.30;99.90;;;;;;4992711;28;20392;-81
2023/02/02 08:44:09;;;;;;;11.47;3.30;;;6.50;99.90;;;;;;4987425;28;20883;-81
2023/02/02 08:46:35;;;;;;;9.77;3.03;;;6.50;99.90;;;;;;4988023;28;20389;-81
2023/02/02 08:49:00;;;;;;;10.77;3.13;;;6.40;99.90;;;;;;4988716;28;20388;-80
2023/02/02 08:51:26;;;;;;;13.57;3.20;;;6.20;99.90;;;;;;4989331;28;20461;-82
2023/02/02 08:53:52;;;;;;;10.30;3.55;;;6.20;99.90;;;;;;4992378;28;20383;-82
2023/02/02 08:56:20;;;;;;;10.65;2.78;;;6.30;99.90;;;;;;5008537;28;20407;-82
2023/02/02 08:58:47;;;;;;;10.55;2.88;;;6.40;99.90;;;;;;5005171;28;20402;-81
2023/02/02 09:01:14;;;;;;;9.27;2.70;;;6.50;99.90;;;;;;5008730;28;20474;-80
2023/02/02 09:03:40;;;;;;;8.48;2.67;;;6.60;99.90;;;;;;5006857;28;20770;-80
2023/02/02 09:06:15;;;;;;;8.48;2.70;;;6.70;99.90;;;;;;5007110;28;22008;-82
2023/02/02 09:08:41;;;;;;;10.57;2.97;;;6.70;99.90;;;;;;5006101;28;20406;-82
2023/02/02 09:11:10;;;;;;;11.52;3.00;;;6.40;99.90;;;;;;5007112;28;20395;-82
2023/02/02 09:13:37;;;;;;;9.07;2.90;;;6.50;99.90;;;;;;5008450;28;20383;-82
2023/02/02 09:16:05;;;;;;;14.52;3.38;;;7.00;99.90;;;;;;5003722;28;20955;-80
2023/02/02 09:18:31;;;;;;;14.25;3.67;;;7.30;99.90;;;;;;5006495;28;20475;-82
2023/02/02 09:21:03;;;;;;;10.77;3.30;;;7.60;99.90;;;;;;5007607;28;20387;-82
2023/02/02 09:23:33;;;;;;;10.05;2.90;;;7.80;99.90;;;;;;5007594;28;20375;-83
2023/02/02 09:26:12;;;;;;;10.73;2.55;;;7.80;99.90;;;;;;5007792;28;20866;-82
2023/02/02 09:28:39;;;;;;;10.80;3.17;;;7.70;99.90;;;;;;5004845;28;20390;-81
2023/02/02 09:31:06;;;;;;;13.00;3.03;;;7.80;99.90;;;;;;5007303;28;20402;-81
2023/02/02 09:33:31;;;;;;;11.52;3.25;;;7.70;99.90;;;;;;5008611;28;20382;-82
2023/02/02 09:36:04;;;;;;;10.45;3.03;;;7.80;99.90;;;;;;5008429;28;20749;-81
2023/02/02 09:38:29;;;;;;;8.23;2.50;;;7.70;99.90;;;;;;5007691;28;20419;-81
2023/02/02 09:40:55;;;;;;;14.63;3.28;;;7.40;99.90;;;;;;5008463;28;20407;-82
2023/02/02 09:43:34;;;;;;;15.73;3.85;;;7.30;99.90;;;;;;5008176;28;20390;-80
2023/02/02 09:46:09;;;;;;;11.73;3.22;;;7.20;99.90;;;;;;5007861;28;20572;-81
2023/02/02 09:48:37;;;;;;;13.53;3.07;;;6.90;99.90;;;;;;5007979;28;20386;-81
2023/02/02 09:51:12;;;;;;;11.02;3.30;;;6.80;99.90;;;;;;5008280;28;20390;-81
2023/02/02 09:53:45;;;;;;;10.82;3.22;;;7.00;99.90;;;;;;5008222;28;20445;-82
2023/02/02 09:56:21;;;;;;;10.53;3.10;;;7.20;99.90;;;;;;5009929;28;20456;-82
2023/02/02 09:58:54;;;;;;;12.63;2.70;;;7.20;99.90;;;;;;5010510;28;20410;-83
2023/02/02 10:01:41;;;;;;;11.77;2.92;;;7.20;99.90;;;;;;5011702;28;20375;-82
2023/02/02 10:04:21;;;;;;;13.52;3.08;;;7.30;99.90;;;;;;5011890;28;20453;-82
2023/02/02 10:06:53;;;;;;;9.70;2.80;;;7.20;99.90;;;;;;5010921;28;20379;-81
2023/02/02 10:09:39;;;;;;;12.18;3.17;;;7.20;99.90;;;;;;5010267;28;20398;-82
2023/02/02 10:12:39;;;;;;;10.75;3.13;;;7.20;99.90;;;;;;5011315;28;20387;-82
2023/02/02 10:15:12;;;;;;;10.32;3.10;;;7.00;99.90;;;;;;5011776;28;20387;-82
2023/02/02 10:18:01;;;;;;;12.93;3.13;;;7.10;99.90;;;;;;5010349;28;20964;-83
2023/02/02 10:20:43;;;;;;;10.35;2.90;;;7.00;99.90;;;;;;5011520;28;20437;-82
2023/02/02 10:23:39;;;;;;;11.57;2.55;;;6.90;99.90;;;;;;5011442;28;20519;-83
2023/02/02 10:26:48;;;;;;;10.35;2.80;;;7.00;99.90;;;;;;5003103;28;20465;-81
2023/02/02 10:29:18;;;;;;;13.50;3.35;;;6.90;99.90;;;;;;4967074;28;20438;-81
2023/02/02 10:32:11;;;;;;;8.95;2.67;;;7.00;99.90;;;;;;5004287;28;20893;-82
2023/02/02 10:34:42;;;;;;;8.45;2.75;;;7.10;99.90;;;;;;5009635;28;20459;-82
2023/02/02 10:37:37;;;;;;;8.80;2.42;;;7.10;99.90;;;;;;5010917;28;20421;-81
2023/02/02 10:40:03;;;;;;;9.40;2.45;;;7.50;99.90;;;;;;4993011;28;20413;-81
2023/02/02 10:45:42;;;;;;;11.07;2.40;;;8.30;99.90;;;;;;4990884;28;20396;-83
2023/02/02 10:48:21;;;;;;;9.85;2.63;;;9.10;99.90;;;;;;4992472;28;20392;-82
2023/02/02 10:50:56;;;;;;;9.63;2.65;;;8.60;99.90;;;;;;5007494;28;20437;-83
2023/02/02 10:53:26;;;;;;;12.73;2.97;;;8.20;99.90;;;;;;5011593;28;20483;-85
2023/02/02 10:56:06;;;;;;;8.55;2.47;;;8.50;99.90;;;;;;5011400;28;20452;-84
2023/02/02 10:58:45;;;;;;;9.55;2.47;;;8.20;99.90;;;;;;5010898;28;20407;-84
2023/02/02 11:01:12;;;;;;;10.40;2.77;;;7.60;99.90;;;;;;5024199;28;20415;-80
2023/02/02 11:03:39;;;;;;;8.55;2.72;;;7.40;99.90;;;;;;5010543;28;20478;-78
2023/02/02 11:09:18;;;;;;;8.98;2.42;;;7.20;99.90;;;;;;5006932;28;20383;-79
2023/02/02 11:11:48;;;;;;;8.15;2.40;;;7.10;99.90;;;;;;5009752;28;20383;-80
2023/02/02 11:14:17;;;;;;;12.90;3.00;;;;;;;;;;4989475;28;20436;-79
2023/02/02 11:16:44;;;;;;;9.98;2.78;;;;;;;;;;4990741;28;20500;-79
2023/02/02 11:19:16;;;;;;;10.40;2.40;;;;;;;;;;4999587;28;20876;-79
2023/02/02 11:21:45;;;;;;;10.13;3.15;;;;;;;;;;5010232;28;20733;-81
2023/02/02 11:24:23;;;;;;;7.57;2.20;;;;;;;;;;5007711;28;20403;-80
2023/02/02 11:26:49;;;;;;;7.68;2.17;;;;;;;;;;5010563;28;20865;-79
2023/02/02 11:29:23;;;;;;;10.30;2.70;;;;;;;;;;5008689;28;20390;-80
2023/02/02 11:31:49;;;;;;;9.02;2.10;;;;;;;;;;5008927;28;20410;-79
2023/02/02 11:34:17;;;;;;;10.40;2.78;;;;;;;;;;5007216;28;20410;-82
2023/02/02 11:36:59;;;;;;;11.97;2.70;;;;;;;;;;5011069;28;20407;-81
2023/02/02 11:39:25;;;;;;;10.30;2.70;;;;;;;;;;5009057;28;20828;-82
2023/02/02 11:41:55;;;;;;;9.63;2.80;;;;;;;;;;5008671;28;20519;-80
2023/02/02 11:44:25;;;;;;;7.65;2.63;;;;;;;;;;5010974;28;20455;-80
2023/02/02 11:46:51;;;;;;;6.80;2.22;;;;;;;;;;5012106;28;20869;-80
2023/02/02 11:49:19;;;;;;;11.40;2.70;;;;;;;;;;5012308;28;20414;-80
2023/02/02 11:52:05;;;;;;;11.50;2.95;;;;;;;;;;5010409;28;20382;-81
2023/02/02 11:54:33;;;;;;;8.70;2.50;;;;;;;;;;5010703;28;20482;-79
2023/02/02 11:57:00;;;;;;;9.93;2.70;;;;;;;;;;5011888;28;20399;-79
2023/02/02 11:59:44;;;;;;;8.98;2.60;;;;;;;;;;5011627;28;20499;-79
2023/02/02 12:02:19;;;;;;;11.65;2.67;;;;;;;;;;5012988;28;20407;-81
2023/02/02 12:04:46;;;;;;;7.88;2.22;;;;;;;;;;5004234;28;20415;-81
2023/02/02 12:07:31;;;;;;;8.38;1.67;;;;;;;;;;5005542;28;20864;-80
2023/02/02 12:10:01;;;;;;;4.90;1.37;;;;;;;;;;4989561;28;20381;-81
2023/02/02 12:12:57;;;;;;;7.25;2.00;;;;;;;;;;4996175;28;20387;-80
2023/02/02 12:15:38;;;;;;;3.60;1.40;;;;;;;;;;5005523;28;20433;-78
2023/02/02 12:18:25;;;;;;;4.45;1.67;;;;;;;;;;5008950;28;20474;-80
2023/02/02 12:20:51;;;;;;;6.65;1.50;;;;;;;;;;4997528;28;20854;-79
2023/02/02 12:23:17;;;;;;;7.68;1.70;;;;;;;;;;5007507;28;20414;-78
2023/02/02 12:25:43;;;;;;;3.85;1.58;;;;;;;;;;5006964;28;20448;-81
2023/02/02 12:28:21;;;;;;;5.00;2.00;;;;;;;;;;5003482;28;20595;-79
2023/02/02 12:31:07;;;;;;;5.93;1.83;;;;;;;;;;4986382;28;20390;-80
2023/02/02 12:33:45;;;;;;;5.28;1.63;;;;;;;;;;4987690;28;20429;-81
2023/02/02 12:36:20;;;;;;;5.57;1.75;;;;;;;;;;4998988;28;20431;-82
2023/02/02 12:38:53;;;;;;;6.50;1.70;;;;;;;;;;5007409;28;20383;-82
2023/02/02 12:41:19;;;;;;;6.20;1.83;;;;;;;;;;5009570;28;20437;-81
2023/02/02 12:43:51;;;;;;;8.07;2.08;;;;;;;;;;4995873;28;20905;-80
2023/02/02 12:46:17;;;;;;;7.45;2.10;;;;;;;;;;5008740;28;20400;-81
2023/02/02 12:48:50;;;;;;;7.37;2.10;;;;;;;;;;5005935;28;20406;-80
2023/02/02 12:51:34;;;;;;;5.78;2.13;;;;;;;;;;5005065;28;20375;-83
2023/02/02 12:54:17;;;;;;;9.15;2.38;;;;;;;;;;4995799;28;20885;-82
2023/02/02 12:57:06;;;;;;;8.68;2.50;;;;;;;;;;4997484;28;20489;-80
2023/02/02 12:59:32;;;;;;;7.50;2.30;;;;;;;;;;5008151;28;20383;-82
2023/02/02 13:02:10;;;;;;;6.20;2.00;;;;;;;;;;5002192;28;20464;-80
2023/02/02 13:04:36;;;;;;;6.32;2.30;;;;;;;;;;4999508;28;20379;-82
2023/02/02 13:07:20;;;;;;;7.05;2.50;;;;;;;;;;5003368;28;20375;-80
2023/02/02 13:09:47;;;;;;;8.90;2.65;;;;;;;;;;4993493;28;20387;-83
2023/02/02 13:12:14;;;;;;;7.75;2.45;;;;;;;;;;5000382;28;20957;-80
2023/02/02 13:14:48;;;;;;;9.48;2.65;;;;;;;;;;4999990;28;20391;-81
2023/02/02 13:17:26;;;;;;;7.35;2.35;;;;;;;;;;5006952;28;20422;-81
2023/02/02 13:19:55;;;;;;;8.90;2.80;;;;;;;;;;5002096;28;20392;-82
2023/02/02 13:22:26;;;;;;;10.30;2.50;;;;;;;;;;4998772;28;20521;-82
2023/02/02 13:24:55;;;;;;;8.48;2.70;;;;;;;;;;5005684;28;20402;-80
2023/02/02 13:27:22;;;;;;;10.07;2.80;;;;;;;;;;5005760;28;20379;-78
2023/02/02 13:29:52;;;;;;;10.10;2.87;;;;;;;;;;5005353;28;20857;-78
2023/02/02 13:32:30;;;;;;;7.90;2.75;;;;;;;;;;5009220;28;20407;-81
2023/02/02 13:35:15;;;;;;;8.13;2.53;;;;;;;;;;5011871;28;20458;-79